sensor_id;sensor_type;location;lat;lon;timestamp;pressure;altitude;pressure_sealevel;temperature;humidity
74435;BME280;62867;52.038;29.256;2023-12-04T00:01:20;1023.9;;;-0.3;62.3
74435;BME280;62867;52.038;29.256;2023-12-04T00:06:44;1024;;;-0.3;62.3
74435;BME280;62867;52.038;29.256;2023-12-04T00:11:50;1024;;;-0.3;62.1
74435;BME280;62867;52.038;29.256;2023-12-04T00:17:02;1024;;;-0.4;62.2
74435;BME280;62867;52.038;29.256;2023-12-04T00:21:40;1024.1;;;-0.5;62.2
74435;BME280;62867;52.038;29.256;2023-12-04T00:26:22;1024.1;;;-0.6;62.2
74435;BME280;62867;52.038;29.256;2023-12-04T00:32:02;1024.1;;;-0.6;62.5
74435;BME280;62867;52.038;29.256;2023-12-04T00:36:46;1024.1;;;-0.5;62.7
74435;BME280;62867;52.038;29.256;2023-12-04T00:41:58;1024.2;;;-0.5;62.7
74435;BME280;62867;52.038;29.256;2023-12-04T00:46:44;1024.2;;;-0.4;62.8
74435;BME280;62867;52.038;29.256;2023-12-04T00:52:04;1024.3;;;-0.4;62.9
74435;BME280;62867;52.038;29.256;2023-12-04T00:56:20;1024.4;;;-0.3;62.9
74435;BME280;62867;52.038;29.256;2023-12-04T01:01:54;1024.5;;;-0.2;62.8
74435;BME280;62867;52.038;29.256;2023-12-04T01:07:02;1024.5;;;-0.2;62.9
74435;BME280;62867;52.038;29.256;2023-12-04T01:11:28;1024.5;;;-0.2;62.9
74435;BME280;62867;52.038;29.256;2023-12-04T01:16:30;1024.6;;;-0.1;62.7
74435;BME280;62867;52.038;29.256;2023-12-04T01:21:28;1024.6;;;-0.1;62.5
74435;BME280;62867;52.038;29.256;2023-12-04T01:26:44;1024.5;;;-0.1;62.5
74435;BME280;62867;52.038;29.256;2023-12-04T01:32:04;1024.5;;;-0.1;62.5
74435;BME280;62867;52.038;29.256;2023-12-04T01:36:40;1024.5;;;-0.1;62.5
74435;BME280;62867;52.038;29.256;2023-12-04T01:41:28;1024.5;;;-0.1;62.6
74435;BME280;62867;52.038;29.256;2023-12-04T01:46:44;1024.6;;;-0.1;62.7
74435;BME280;62867;52.038;29.256;2023-12-04T01:51:58;1024.7;;;-0.1;62.9
74435;BME280;62867;52.038;29.256;2023-12-04T01:56:54;1024.8;;;-0.1;62.8
74435;BME280;62867;52.038;29.256;2023-12-04T02:01:32;1024.8;;;-0.1;62.9
74435;BME280;62867;52.038;29.256;2023-12-04T02:06:44;1024.9;;;-0.1;62.7
74435;BME280;62867;52.038;29.256;2023-12-04T02:12:06;1024.9;;;-0.1;62.5
74435;BME280;62867;52.038;29.256;2023-12-04T02:16:48;1024.8;;;-0.1;62.3
74435;BME280;62867;52.038;29.256;2023-12-04T02:21:58;1024.8;;;-0.1;62.4
74435;BME280;62867;52.038;29.256;2023-12-04T02:26:52;1024.8;;;-0.1;62.5
74435;BME280;62867;52.038;29.256;2023-12-04T02:32:02;1024.8;;;-0.2;62.6
74435;BME280;62867;52.038;29.256;2023-12-04T02:36:30;1024.9;;;-0.2;62.9
74435;BME280;62867;52.038;29.256;2023-12-04T02:42:03;1024.9;;;-0.1;63
74435;BME280;62867;52.038;29.256;2023-12-04T02:47:02;1024.9;;;-0.1;63
74435;BME280;62867;52.038;29.256;2023-12-04T02:51:20;1024.9;;;0;63
74435;BME280;62867;52.038;29.256;2023-12-04T02:57:02;1025;;;0;63.3
74435;BME280;62867;52.038;29.256;2023-12-04T03:01:46;1025.1;;;0;63.2
74435;BME280;62867;52.038;29.256;2023-12-04T03:06:28;1025.1;;;0.1;63.3
74435;BME280;62867;52.038;29.256;2023-12-04T03:12:02;1025.1;;;0.1;63.1
74435;BME280;62867;52.038;29.256;2023-12-04T03:16:20;1025.1;;;0.1;63
74435;BME280;62867;52.038;29.256;2023-12-04T03:21:44;1025.1;;;0.1;63.1
74435;BME280;62867;52.038;29.256;2023-12-04T03:26:28;1025.1;;;0.1;63
74435;BME280;62867;52.038;29.256;2023-12-04T03:32:04;1025.2;;;0.1;63
74435;BME280;62867;52.038;29.256;2023-12-04T03:36:34;1025.3;;;0.1;63.2
74435;BME280;62867;52.038;29.256;2023-12-04T03:41:40;1025.3;;;0.2;63.3
74435;BME280;62867;52.038;29.256;2023-12-04T03:47:04;1025.3;;;0.2;63.2
74435;BME280;62867;52.038;29.256;2023-12-04T03:52:04;1025.3;;;0.3;63.2
74435;BME280;62867;52.038;29.256;2023-12-04T03:57:00;1025.3;;;0.3;63
74435;BME280;62867;52.038;29.256;2023-12-04T04:02:04;1025.3;;;0.3;63.1
74435;BME280;62867;52.038;29.256;2023-12-04T04:06:28;1025.4;;;0.3;63
74435;BME280;62867;52.038;29.256;2023-12-04T04:11:50;1025.4;;;0.4;63.1
74435;BME280;62867;52.038;29.256;2023-12-04T04:16:40;1025.5;;;0.4;63.3
74435;BME280;62867;52.038;29.256;2023-12-04T04:21:50;1025.5;;;0.4;63.4
74435;BME280;62867;52.038;29.256;2023-12-04T04:26:42;1025.5;;;0.3;63.8
74435;BME280;62867;52.038;29.256;2023-12-04T04:31:28;1025.5;;;0.3;64.5
74435;BME280;62867;52.038;29.256;2023-12-04T04:37:04;1025.5;;;0.4;64.7
74435;BME280;62867;52.038;29.256;2023-12-04T04:41:46;1025.6;;;0.5;64.8
74435;BME280;62867;52.038;29.256;2023-12-04T04:46:28;1025.5;;;0.6;64.8
74435;BME280;62867;52.038;29.256;2023-12-04T04:52:02;1025.5;;;0.6;64.8
74435;BME280;62867;52.038;29.256;2023-12-04T04:56:22;1025.5;;;0.7;64.5
74435;BME280;62867;52.038;29.256;2023-12-04T05:01:26;1025.5;;;0.7;64.7
74435;BME280;62867;52.038;29.256;2023-12-04T05:07:00;1025.5;;;0.7;64.5
74435;BME280;62867;52.038;29.256;2023-12-04T05:12:02;1025.6;;;0.7;64.5
74435;BME280;62867;52.038;29.256;2023-12-04T05:16:26;1025.6;;;0.7;64.8
74435;BME280;62867;52.038;29.256;2023-12-04T05:21:38;1025.6;;;0.7;64.6
74435;BME280;62867;52.038;29.256;2023-12-04T05:27:04;1025.6;;;0.8;64.6
74435;BME280;62867;52.038;29.256;2023-12-04T05:32:02;1025.7;;;0.8;64.7
74435;BME280;62867;52.038;29.256;2023-12-04T05:36:50;1025.7;;;0.9;64.8
74435;BME280;62867;52.038;29.256;2023-12-04T05:42:04;1025.7;;;1;64.5
74435;BME280;62867;52.038;29.256;2023-12-04T05:46:26;1025.8;;;1;64.3
74435;BME280;62867;52.038;29.256;2023-12-04T05:51:48;1025.8;;;1;64.2
74435;BME280;62867;52.038;29.256;2023-12-04T05:56:58;1025.9;;;1;64
74435;BME280;62867;52.038;29.256;2023-12-04T06:01:30;1026;;;1;63.9
74435;BME280;62867;52.038;29.256;2023-12-04T06:06:30;1026.1;;;1;63.9
74435;BME280;62867;52.038;29.256;2023-12-04T06:11:40;1026.1;;;1.1;63.8
74435;BME280;62867;52.038;29.256;2023-12-04T06:17:04;1026.1;;;1.1;63.8
74435;BME280;62867;52.038;29.256;2023-12-04T06:21:32;1026.1;;;1.1;63.8
74435;BME280;62867;52.038;29.256;2023-12-04T06:26:38;1026.1;;;1.2;63.8
74435;BME280;62867;52.038;29.256;2023-12-04T06:31:20;1026.1;;;1.2;63.7
74435;BME280;62867;52.038;29.256;2023-12-04T06:36:48;1026.2;;;1.1;63.8
74435;BME280;62867;52.038;29.256;2023-12-04T06:41:42;1026.2;;;1.2;63.8
74435;BME280;62867;52.038;29.256;2023-12-04T06:46:24;1026.2;;;1.2;63.5
74435;BME280;62867;52.038;29.256;2023-12-04T06:52:02;1026.2;;;1.2;63.6
74435;BME280;62867;52.038;29.256;2023-12-04T06:56:42;1026.3;;;1.2;63.5
74435;BME280;62867;52.038;29.256;2023-12-04T07:02:02;1026.3;;;1.2;63.3
74435;BME280;62867;52.038;29.256;2023-12-04T07:07:04;1026.3;;;1.2;63.3
74435;BME280;62867;52.038;29.256;2023-12-04T07:12:04;1026.3;;;1.2;63.3
74435;BME280;62867;52.038;29.256;2023-12-04T07:17:00;1026.3;;;1.3;63.1
74435;BME280;62867;52.038;29.256;2023-12-04T07:21:28;1026.4;;;1.3;63
74435;BME280;62867;52.038;29.256;2023-12-04T07:26:20;1026.4;;;1.4;62.8
74435;BME280;62867;52.038;29.256;2023-12-04T07:31:50;1026.4;;;1.5;62.6
74435;BME280;62867;52.038;29.256;2023-12-04T07:37:04;1026.5;;;1.7;62.4
74435;BME280;62867;52.038;29.256;2023-12-04T07:41:20;1026.5;;;1.7;62.1
74435;BME280;62867;52.038;29.256;2023-12-04T07:46:42;1026.5;;;1.7;61.8
74435;BME280;62867;52.038;29.256;2023-12-04T07:51:20;1026.5;;;1.7;61.5
74435;BME280;62867;52.038;29.256;2023-12-04T07:57:02;1026.6;;;1.7;61.2
74435;BME280;62867;52.038;29.256;2023-12-04T08:02:02;1026.6;;;1.7;60.8
74435;BME280;62867;52.038;29.256;2023-12-04T08:06:42;1026.7;;;1.7;60.9
74435;BME280;62867;52.038;29.256;2023-12-04T08:12:04;1026.7;;;1.8;60.7
74435;BME280;62867;52.038;29.256;2023-12-04T08:16:22;1026.8;;;1.8;60.3
74435;BME280;62867;52.038;29.256;2023-12-04T08:21:20;1026.8;;;1.9;60.2
74435;BME280;62867;52.038;29.256;2023-12-04T08:26:24;1026.8;;;1.9;59.9
74435;BME280;62867;52.038;29.256;2023-12-04T08:31:40;1026.8;;;1.8;60
74435;BME280;62867;52.038;29.256;2023-12-04T08:36:34;1026.8;;;1.8;59.7
74435;BME280;62867;52.038;29.256;2023-12-04T08:41:45;1026.8;;;1.8;59.8
74435;BME280;62867;52.038;29.256;2023-12-04T08:47:02;1026.8;;;1.9;59.8
74435;BME280;62867;52.038;29.256;2023-12-04T08:52:02;1026.8;;;1.9;59.4
74435;BME280;62867;52.038;29.256;2023-12-04T08:56:44;1026.8;;;2;59.3
74435;BME280;62867;52.038;29.256;2023-12-04T09:02:00;1026.8;;;2;58.7
74435;BME280;62867;52.038;29.256;2023-12-04T09:06:20;1026.8;;;2;58.7
74435;BME280;62867;52.038;29.256;2023-12-04T09:11:46;1026.8;;;2.1;58.7
74435;BME280;62867;52.038;29.256;2023-12-04T09:17:00;1026.9;;;2.3;58.4
74435;BME280;62867;52.038;29.256;2023-12-04T09:21:44;1026.9;;;2.4;58.2
74435;BME280;62867;52.038;29.256;2023-12-04T09:26:44;1026.8;;;2.4;58.3
74435;BME280;62867;52.038;29.256;2023-12-04T09:31:38;1026.8;;;2.4;58
74435;BME280;62867;52.038;29.256;2023-12-04T09:36:48;1026.8;;;2.4;58.2
74435;BME280;62867;52.038;29.256;2023-12-04T09:42:02;1026.8;;;2.3;58.3
74435;BME280;62867;52.038;29.256;2023-12-04T09:46:50;1026.8;;;2.3;58.1
74435;BME280;62867;52.038;29.256;2023-12-04T09:51:34;1026.8;;;2.3;58.1
74435;BME280;62867;52.038;29.256;2023-12-04T09:56:40;1026.7;;;2.2;57.9
74435;BME280;62867;52.038;29.256;2023-12-04T10:01:44;1026.8;;;2.1;57.9
74435;BME280;62867;52.038;29.256;2023-12-04T10:06:26;1026.8;;;2;58.3
74435;BME280;62867;52.038;29.256;2023-12-04T10:11:40;1026.8;;;1.9;58.5
74435;BME280;62867;52.038;29.256;2023-12-04T10:16:42;1026.8;;;1.9;58.6
74435;BME280;62867;52.038;29.256;2023-12-04T10:21:48;1026.9;;;1.9;58.7
74435;BME280;62867;52.038;29.256;2023-12-04T10:27:08;1026.9;;;1.9;59
74435;BME280;62867;52.038;29.256;2023-12-04T10:32:08;1026.9;;;1.9;58.9
74435;BME280;62867;52.038;29.256;2023-12-04T10:36:20;1026.9;;;2;58.9
74435;BME280;62867;52.038;29.256;2023-12-04T10:41:47;1026.9;;;2.1;58.9
74435;BME280;62867;52.038;29.256;2023-12-04T10:46:18;1026.9;;;2.2;58.5
74435;BME280;62867;52.038;29.256;2023-12-04T10:51:38;1026.9;;;2.2;58.2
74435;BME280;62867;52.038;29.256;2023-12-04T10:56:46;1026.8;;;2.2;58.2
74435;BME280;62867;52.038;29.256;2023-12-04T11:01:38;1026.8;;;2.1;58.3
74435;BME280;62867;52.038;29.256;2023-12-04T11:06:22;1026.8;;;2.2;58.2
74435;BME280;62867;52.038;29.256;2023-12-04T11:11:21;1026.8;;;2.2;58.2
74435;BME280;62867;52.038;29.256;2023-12-04T11:17:04;1026.8;;;2.3;58.2
74435;BME280;62867;52.038;29.256;2023-12-04T11:22:07;1026.8;;;2.4;58.3
74435;BME280;62867;52.038;29.256;2023-12-04T11:26:42;1026.8;;;2.5;58.2
74435;BME280;62867;52.038;29.256;2023-12-04T11:32:00;1026.8;;;2.5;58
74435;BME280;62867;52.038;29.256;2023-12-04T11:36:20;1026.7;;;2.5;57.9
74435;BME280;62867;52.038;29.256;2023-12-04T11:41:22;1026.7;;;2.4;57.8
74435;BME280;62867;52.038;29.256;2023-12-04T11:46:55;1026.7;;;2.2;57.8
74435;BME280;62867;52.038;29.256;2023-12-04T11:51:58;1026.7;;;2.2;57.9
74435;BME280;62867;52.038;29.256;2023-12-04T11:56:36;1026.7;;;2.3;58
74435;BME280;62867;52.038;29.256;2023-12-04T12:01:44;1026.7;;;2.3;58.1
74435;BME280;62867;52.038;29.256;2023-12-04T12:06:56;1026.7;;;2.3;58.1
74435;BME280;62867;52.038;29.256;2023-12-04T12:12:06;1026.7;;;2.2;58.2
74435;BME280;62867;52.038;29.256;2023-12-04T12:16:28;1026.7;;;2.2;58.5
74435;BME280;62867;52.038;29.256;2023-12-04T12:21:46;1026.7;;;2.3;58.5
74435;BME280;62867;52.038;29.256;2023-12-04T12:27:06;1026.7;;;2.3;58.6
74435;BME280;62867;52.038;29.256;2023-12-04T12:31:48;1026.7;;;2.3;58.6
74435;BME280;62867;52.038;29.256;2023-12-04T12:37:02;1026.6;;;2.3;58.4
74435;BME280;62867;52.038;29.256;2023-12-04T12:41:36;1026.6;;;2.2;58.3
74435;BME280;62867;52.038;29.256;2023-12-04T12:47:08;1026.6;;;2.1;58.5
74435;BME280;62867;52.038;29.256;2023-12-04T12:51:30;1026.6;;;2;58.8
74435;BME280;62867;52.038;29.256;2023-12-04T12:57:06;1026.6;;;1.9;59
74435;BME280;62867;52.038;29.256;2023-12-04T13:02:04;1026.6;;;1.7;59.3
74435;BME280;62867;52.038;29.256;2023-12-04T13:06:26;1026.7;;;1.6;59.7
74435;BME280;62867;52.038;29.256;2023-12-04T13:11:44;1026.6;;;1.6;59.8
74435;BME280;62867;52.038;29.256;2023-12-04T13:16:18;1026.6;;;1.5;59.9
74435;BME280;62867;52.038;29.256;2023-12-04T13:21:26;1026.7;;;1.5;60.1
74435;BME280;62867;52.038;29.256;2023-12-04T13:26:18;1026.7;;;1.5;60.1
74435;BME280;62867;52.038;29.256;2023-12-04T13:31:18;1026.7;;;1.4;60.2
74435;BME280;62867;52.038;29.256;2023-12-04T13:36:26;1026.8;;;1.4;60.4
74435;BME280;62867;52.038;29.256;2023-12-04T13:41:22;1026.8;;;1.3;60.7
74435;BME280;62867;52.038;29.256;2023-12-04T13:47:02;1026.8;;;1.3;60.7
74435;BME280;62867;52.038;29.256;2023-12-04T13:52:06;1026.8;;;1.3;60.8
74435;BME280;62867;52.038;29.256;2023-12-04T13:56:18;1026.8;;;1.2;61.3
74435;BME280;62867;52.038;29.256;2023-12-04T14:01:46;1026.8;;;1.2;61.2
74435;BME280;62867;52.038;29.256;2023-12-04T14:07:06;1026.8;;;1.2;61.2
74435;BME280;62867;52.038;29.256;2023-12-04T14:11:48;1026.9;;;1.2;61.3
74435;BME280;62867;52.038;29.256;2023-12-04T14:16:44;1026.9;;;1.2;61.2
74435;BME280;62867;52.038;29.256;2023-12-04T14:22:04;1026.8;;;1.1;61.3
74435;BME280;62867;52.038;29.256;2023-12-04T14:27:06;1026.8;;;1.1;61.4
74435;BME280;62867;52.038;29.256;2023-12-04T14:31:44;1026.8;;;1;61.5
74435;BME280;62867;52.038;29.256;2023-12-04T14:36:46;1026.8;;;1;61.7
74435;BME280;62867;52.038;29.256;2023-12-04T14:42:04;1026.8;;;0.9;62
74435;BME280;62867;52.038;29.256;2023-12-04T14:46:38;1026.8;;;0.9;62
74435;BME280;62867;52.038;29.256;2023-12-04T14:51:38;1026.9;;;0.9;62.3
74435;BME280;62867;52.038;29.256;2023-12-04T14:56:30;1026.9;;;0.9;62.4
74435;BME280;62867;52.038;29.256;2023-12-04T15:01:28;1026.9;;;0.9;62.4
74435;BME280;62867;52.038;29.256;2023-12-04T15:06:42;1026.9;;;1;62.3
74435;BME280;62867;52.038;29.256;2023-12-04T15:11:20;1026.9;;;1;62.2
74435;BME280;62867;52.038;29.256;2023-12-04T15:16:50;1027;;;1;62.3
74435;BME280;62867;52.038;29.256;2023-12-04T15:21:46;1027;;;1;62.2
74435;BME280;62867;52.038;29.256;2023-12-04T15:26:48;1027;;;1;62.3
74435;BME280;62867;52.038;29.256;2023-12-04T15:32:06;1027;;;1;62.2
74435;BME280;62867;52.038;29.256;2023-12-04T15:36:28;1027.1;;;1;62.2
74435;BME280;62867;52.038;29.256;2023-12-04T15:41:46;1027.1;;;1;62.2
74435;BME280;62867;52.038;29.256;2023-12-04T15:47:06;1027.2;;;1.1;62.4
74435;BME280;62867;52.038;29.256;2023-12-04T15:51:22;1027.2;;;1.2;62.2
74435;BME280;62867;52.038;29.256;2023-12-04T15:56:40;1027.2;;;1.2;62.1
74435;BME280;62867;52.038;29.256;2023-12-04T16:01:38;1027.3;;;1.1;61.9
74435;BME280;62867;52.038;29.256;2023-12-04T16:07:06;1027.3;;;1.2;62.1
74435;BME280;62867;52.038;29.256;2023-12-04T16:11:30;1027.3;;;1.2;62
74435;BME280;62867;52.038;29.256;2023-12-04T16:17:02;1027.3;;;1.2;61.7
74435;BME280;62867;52.038;29.256;2023-12-04T16:21:18;1027.3;;;1.2;61.6
74435;BME280;62867;52.038;29.256;2023-12-04T16:26:20;1027.3;;;1.2;61.4
74435;BME280;62867;52.038;29.256;2023-12-04T16:32:06;1027.4;;;1.2;61.4
74435;BME280;62867;52.038;29.256;2023-12-04T16:36:50;1027.4;;;1.1;61.3
74435;BME280;62867;52.038;29.256;2023-12-04T16:41:46;1027.4;;;1.2;61.4
74435;BME280;62867;52.038;29.256;2023-12-04T16:46:28;1027.4;;;1.2;61.1
74435;BME280;62867;52.038;29.256;2023-12-04T16:51:26;1027.4;;;1.3;61.1
74435;BME280;62867;52.038;29.256;2023-12-04T16:56:18;1027.5;;;1.3;61.2
74435;BME280;62867;52.038;29.256;2023-12-04T17:01:18;1027.5;;;1.4;61.3
74435;BME280;62867;52.038;29.256;2023-12-04T17:06:20;1027.4;;;1.4;61.1
74435;BME280;62867;52.038;29.256;2023-12-04T17:11:42;1027.4;;;1.4;60.9
74435;BME280;62867;52.038;29.256;2023-12-04T17:16:30;1027.5;;;1.3;60.7
74435;BME280;62867;52.038;29.256;2023-12-04T17:22:06;1027.5;;;1.3;60.8
74435;BME280;62867;52.038;29.256;2023-12-04T17:27:06;1027.5;;;1.3;60.8
74435;BME280;62867;52.038;29.256;2023-12-04T17:31:36;1027.6;;;1.2;60.9
74435;BME280;62867;52.038;29.256;2023-12-04T17:37:02;1027.6;;;1.2;61.2
74435;BME280;62867;52.038;29.256;2023-12-04T17:41:24;1027.7;;;1.2;61.4
74435;BME280;62867;52.038;29.256;2023-12-04T17:46:38;1027.7;;;1.1;61.6
74435;BME280;62867;52.038;29.256;2023-12-04T17:51:58;1027.7;;;1.1;61.6
74435;BME280;62867;52.038;29.256;2023-12-04T17:57:02;1027.8;;;1.2;61.6
74435;BME280;62867;52.038;29.256;2023-12-04T18:01:44;1027.8;;;1.1;61.7
74435;BME280;62867;52.038;29.256;2023-12-04T18:06:24;1027.8;;;1.1;61.7
74435;BME280;62867;52.038;29.256;2023-12-04T18:12:06;1027.8;;;1.1;61.6
74435;BME280;62867;52.038;29.256;2023-12-04T18:16:40;1027.8;;;1;61.7
74435;BME280;62867;52.038;29.256;2023-12-04T18:21:36;1027.8;;;1;61.7
74435;BME280;62867;52.038;29.256;2023-12-04T18:26:34;1027.9;;;0.9;61.9
74435;BME280;62867;52.038;29.256;2023-12-04T18:31:20;1027.9;;;0.9;62.1
74435;BME280;62867;52.038;29.256;2023-12-04T18:36:18;1027.9;;;0.9;62.2
74435;BME280;62867;52.038;29.256;2023-12-04T18:41:21;1027.9;;;0.9;62.4
74435;BME280;62867;52.038;29.256;2023-12-04T18:47:07;1027.9;;;0.9;62.2
74435;BME280;62867;52.038;29.256;2023-12-04T18:51:42;1027.9;;;0.9;62.2
74435;BME280;62867;52.038;29.256;2023-12-04T18:56:38;1027.9;;;0.9;62.2
74435;BME280;62867;52.038;29.256;2023-12-04T19:02:04;1027.9;;;0.9;62.2
74435;BME280;62867;52.038;29.256;2023-12-04T19:07:06;1027.9;;;0.9;62.2
74435;BME280;62867;52.038;29.256;2023-12-04T19:11:44;1028;;;0.9;62.1
74435;BME280;62867;52.038;29.256;2023-12-04T19:17:04;1028;;;0.8;62.1
74435;BME280;62867;52.038;29.256;2023-12-04T19:21:18;1028;;;0.8;62.3
74435;BME280;62867;52.038;29.256;2023-12-04T19:26:46;1028;;;0.8;62.3
74435;BME280;62867;52.038;29.256;2023-12-04T19:31:18;1028;;;0.8;62.4
74435;BME280;62867;52.038;29.256;2023-12-04T19:36:46;1028;;;0.8;62.6
74435;BME280;62867;52.038;29.256;2023-12-04T19:41:40;1028.1;;;0.7;62.4
74435;BME280;62867;52.038;29.256;2023-12-04T19:46:20;1028.1;;;0.7;62.4
74435;BME280;62867;52.038;29.256;2023-12-04T19:52:06;1028.2;;;0.6;62.6
74435;BME280;62867;52.038;29.256;2023-12-04T19:56:44;1028.2;;;0.7;62.6
74435;BME280;62867;52.038;29.256;2023-12-04T20:01:26;1028.2;;;0.6;62.5
74435;BME280;62867;52.038;29.256;2023-12-04T20:06:18;1028.2;;;0.5;62.4
74435;BME280;62867;52.038;29.256;2023-12-04T20:11:20;1028.3;;;0.4;62.4
74435;BME280;62867;52.038;29.256;2023-12-04T20:16:26;1028.3;;;0.3;62.4
74435;BME280;62867;52.038;29.256;2023-12-04T20:21:26;1028.4;;;0.2;62.5
74435;BME280;62867;52.038;29.256;2023-12-04T20:27:06;1028.4;;;0.2;62.5
74435;BME280;62867;52.038;29.256;2023-12-04T20:31:40;1028.5;;;0.2;62.8
74435;BME280;62867;52.038;29.256;2023-12-04T20:36:18;1028.5;;;0.3;62.9
74435;BME280;62867;52.038;29.256;2023-12-04T20:42:06;1028.5;;;0.3;62.8
74435;BME280;62867;52.038;29.256;2023-12-04T20:47:06;1028.5;;;0.4;62.7
74435;BME280;62867;52.038;29.256;2023-12-04T20:51:44;1028.5;;;0.4;62.8
74435;BME280;62867;52.038;29.256;2023-12-04T20:56:44;1028.5;;;0.4;62.7
74435;BME280;62867;52.038;29.256;2023-12-04T21:01:26;1028.5;;;0.4;62.6
74435;BME280;62867;52.038;29.256;2023-12-04T21:06:48;1028.5;;;0.3;62.6
74435;BME280;62867;52.038;29.256;2023-12-04T21:12:02;1028.5;;;0.2;62.6
74435;BME280;62867;52.038;29.256;2023-12-04T21:16:44;1028.5;;;0.1;62.6
74435;BME280;62867;52.038;29.256;2023-12-04T21:21:44;1028.5;;;-0.1;62.5
74435;BME280;62867;52.038;29.256;2023-12-04T21:26:16;1028.6;;;-0.2;62.3
74435;BME280;62867;52.038;29.256;2023-12-04T21:32:06;1028.6;;;-0.3;62.4
74435;BME280;62867;52.038;29.256;2023-12-04T21:37:06;1028.6;;;-0.3;62.8
74435;BME280;62867;52.038;29.256;2023-12-04T21:41:46;1028.6;;;-0.4;62.7
74435;BME280;62867;52.038;29.256;2023-12-04T21:46:18;1028.6;;;-0.4;62.8
74435;BME280;62867;52.038;29.256;2023-12-04T21:51:18;1028.6;;;-0.3;63
74435;BME280;62867;52.038;29.256;2023-12-04T21:56:30;1028.6;;;-0.3;63.1
74435;BME280;62867;52.038;29.256;2023-12-04T22:01:18;1028.6;;;-0.3;63
74435;BME280;62867;52.038;29.256;2023-12-04T22:07:02;1028.6;;;-0.3;63
74435;BME280;62867;52.038;29.256;2023-12-04T22:11:46;1028.5;;;-0.2;63.1
74435;BME280;62867;52.038;29.256;2023-12-04T22:16:38;1028.6;;;-0.2;63.2
74435;BME280;62867;52.038;29.256;2023-12-04T22:21:22;1028.6;;;-0.1;63
74435;BME280;62867;52.038;29.256;2023-12-04T22:27:06;1028.6;;;-0.1;63.2
74435;BME280;62867;52.038;29.256;2023-12-04T22:31:58;1028.5;;;0;63.4
74435;BME280;62867;52.038;29.256;2023-12-04T22:36:18;1028.5;;;0;63.4
74435;BME280;62867;52.038;29.256;2023-12-04T22:41:44;1028.6;;;0.1;63.4
74435;BME280;62867;52.038;29.256;2023-12-04T22:46:48;1028.6;;;0.1;63.5
74435;BME280;62867;52.038;29.256;2023-12-04T22:51:20;1028.7;;;0.2;63.5
74435;BME280;62867;52.038;29.256;2023-12-04T22:56:44;1028.6;;;0.2;63.5
74435;BME280;62867;52.038;29.256;2023-12-04T23:01:46;1028.6;;;0.2;63.3
74435;BME280;62867;52.038;29.256;2023-12-04T23:06:28;1028.6;;;0.2;63.3
74435;BME280;62867;52.038;29.256;2023-12-04T23:12:04;1028.5;;;0.3;63.1
74435;BME280;62867;52.038;29.256;2023-12-04T23:17:04;1028.5;;;0.3;63.1
74435;BME280;62867;52.038;29.256;2023-12-04T23:22:04;1028.5;;;0.4;63
74435;BME280;62867;52.038;29.256;2023-12-04T23:26:18;1028.6;;;0.4;63
74435;BME280;62867;52.038;29.256;2023-12-04T23:31:48;1028.6;;;0.5;63
74435;BME280;62867;52.038;29.256;2023-12-04T23:36:18;1028.6;;;0.5;63.2
74435;BME280;62867;52.038;29.256;2023-12-04T23:41:34;1028.6;;;0.6;63.1
74435;BME280;62867;52.038;29.256;2023-12-04T23:46:34;1028.6;;;0.6;63
74435;BME280;62867;52.038;29.256;2023-12-04T23:51:42;1028.6;;;0.5;63
74435;BME280;62867;52.038;29.256;2023-12-04T23:56:44;1028.6;;;0.5;62.9
